Terminal Aerodrome Forecast
Issued by NWS

Home | Current Version | Previous Version | Text Only | Print | Product List | Glossary On
Versions: 1 2 3 4 5 6 7 8 9 10 11 12 13
379
FTUS44 KTSA 310520
TAFBVO
TAF
KBVO 310520Z 3106/0106 16004KT P6SM SCT050 SCT250
     FM311000 00000KT P6SM SCT010 BKN025
     FM311200 15003KT 4SM BR BKN015
     FM311500 17006KT P6SM SCT015 BKN025
     FM311800 19008KT P6SM VCTS BKN035CB
     FM010000 VRB05KT P6SM VCTS BKN100CB=

USA.gov is the U.S. government's official web portal to all federal, state and local government web resources and services.